Time;durP1;ratioP1;P1;durP2;ratioP2;P2;SDS_P1;SDS_P2;PMS_P1;PMS_P2;Temp;Humidity;BMP_temperature;BMP_pressure;BME280_temperature;BME280_humidity;BME280_pressure;Samples;Min_cycle;Max_cycle;Signal;HPM_P1;HPM_P2
2021/06/27 00:01:13;;;;;;;0.55;0.30;;;;;;;;;;5104314;28;20040;-68
2021/06/27 00:03:40;;;;;;;1.52;0.85;;;;;;;;;;5082866;28;20065;-68
2021/06/27 00:06:08;;;;;;;1.58;0.73;;;;;;;;;;5053224;28;20070;-68
2021/06/27 00:08:35;;;;;;;2.10;0.40;;;;;;;;;;5071442;28;20142;-67
2021/06/27 00:11:03;;;;;;;1.83;0.30;;;;;;;;;;5065195;28;20029;-68
2021/06/27 00:13:30;;;;;;;1.15;0.70;;;;;;;;;;5048139;28;20045;-68
2021/06/27 00:15:58;;;;;;;1.15;0.40;;;;;;;;;;5069632;28;20485;-68
2021/06/27 00:18:27;;;;;;;0.65;0.30;;;;;;;;;;5073221;28;20040;-68
2021/06/27 00:20:56;;;;;;;0.60;0.30;;;;;;;;;;5068537;28;20029;-68
2021/06/27 00:23:24;;;;;;;1.85;0.20;;;;;;;;;;5071900;28;20035;-68
2021/06/27 00:25:52;;;;;;;0.52;0.22;;;;;;;;;;5070539;28;20026;-68
2021/06/27 00:28:20;;;;;;;1.75;0.40;;;;;;;;;;5077029;28;20389;-68
2021/06/27 00:30:49;;;;;;;1.40;0.47;;;;;;;;;;5076575;28;20063;-68
2021/06/27 00:33:17;;;;;;;1.65;0.40;;;;;;;;;;5075467;28;20082;-67
2021/06/27 00:35:44;;;;;;;2.00;0.40;;;;;;;;;;5057795;28;20040;-68
2021/06/27 00:38:11;;;;;;;0.90;0.30;;;;;;;;;;5079566;28;20047;-69
2021/06/27 00:40:39;;;;;;;0.82;0.32;;;;;;;;;;5057555;28;20041;-67
2021/06/27 00:43:06;;;;;;;0.30;0.20;;;;;;;;;;5072256;28;20036;-67
2021/06/27 00:45:34;;;;;;;0.65;0.32;;;;;;;;;;5071292;28;20025;-68
2021/06/27 00:48:01;;;;;;;1.40;0.30;;;;;;;;;;5074428;28;20032;-68
2021/06/27 00:50:30;;;;;;;1.20;0.40;;;;;;;;;;5075795;28;20416;-68
2021/06/27 00:52:58;;;;;;;0.80;0.40;;;;;;;;;;5057216;28;20036;-68
2021/06/27 00:55:25;;;;;;;1.42;0.50;;;;;;;;;;5076793;28;20028;-68
2021/06/27 00:57:53;;;;;;;2.63;0.30;;;;;;;;;;5072452;28;20505;-69
2021/06/27 01:00:25;;;;;;;1.50;0.30;;;;;;;;;;5068324;28;20037;-68
2021/06/27 01:02:52;;;;;;;1.42;0.30;;;;;;;;;;5051826;28;20032;-68
2021/06/27 01:05:24;;;;;;;3.63;0.60;;;;;;;;;;5069513;28;20035;-68
2021/06/27 01:07:52;;;;;;;1.83;0.50;;;;;;;;;;5075784;28;21104;-68
2021/06/27 01:10:19;;;;;;;0.68;0.30;;;;;;;;;;5073039;28;20166;-68
2021/06/27 01:12:46;;;;;;;1.40;0.45;;;;;;;;;;5083025;28;20028;-68
2021/06/27 01:15:14;;;;;;;2.53;0.50;;;;;;;;;;5082607;28;20498;-68
2021/06/27 01:17:47;;;;;;;0.82;0.30;;;;;;;;;;5087996;28;20033;-68
2021/06/27 01:20:24;;;;;;;2.95;1.13;;;;;;;;;;5084133;28;20029;-67
2021/06/27 01:22:52;;;;;;;0.73;0.35;;;;;;;;;;5080515;28;20521;-67
2021/06/27 01:25:24;;;;;;;1.27;0.50;;;;;;;;;;5089666;28;20008;-68
2021/06/27 01:27:52;;;;;;;1.15;0.20;;;;;;;;;;5068078;28;20021;-68
2021/06/27 01:30:19;;;;;;;0.98;0.40;;;;;;;;;;5084572;28;20100;-68
2021/06/27 01:32:47;;;;;;;0.65;0.30;;;;;;;;;;5078629;28;20040;-68
2021/06/27 01:35:16;;;;;;;0.90;0.30;;;;;;;;;;5078436;28;20082;-68
2021/06/27 01:37:44;;;;;;;1.83;0.20;;;;;;;;;;5086173;28;20063;-68
2021/06/27 01:40:13;;;;;;;2.40;0.30;;;;;;;;;;5081902;28;20107;-68
2021/06/27 01:42:40;;;;;;;0.90;0.38;;;;;;;;;;5057632;28;20041;-68
2021/06/27 01:45:12;;;;;;;3.38;0.30;;;;;;;;;;5076442;28;20028;-68
2021/06/27 01:47:39;;;;;;;0.70;0.22;;;;;;;;;;5079873;28;20112;-68
2021/06/27 01:50:10;;;;;;;1.15;0.50;;;;;;;;;;5079726;28;20071;-68
2021/06/27 01:52:37;;;;;;;0.68;0.30;;;;;;;;;;5081318;28;20039;-68
2021/06/27 01:55:06;;;;;;;1.92;0.20;;;;;;;;;;5077553;28;20488;-68
2021/06/27 01:57:33;;;;;;;0.80;0.30;;;;;;;;;;5081154;28;20166;-68
2021/06/27 02:00:02;;;;;;;0.30;0.20;;;;;;;;;;5064131;28;20438;-68
2021/06/27 02:02:29;;;;;;;2.50;0.30;;;;;;;;;;5079569;28;20362;-68
2021/06/27 02:04:57;;;;;;;3.53;0.13;;;;;;;;;;5082792;28;20036;-68
2021/06/27 02:07:24;;;;;;;1.95;0.40;;;;;;;;;;5083723;28;20036;-68
2021/06/27 02:09:51;;;;;;;0.70;0.30;;;;;;;;;;5081579;28;20025;-68
2021/06/27 02:12:18;;;;;;;2.88;0.20;;;;;;;;;;5079533;28;20028;-68
2021/06/27 02:14:45;;;;;;;3.33;0.63;;;;;;;;;;5080130;28;20029;-68
2021/06/27 02:17:12;;;;;;;1.83;0.30;;;;;;;;;;5086554;28;20068;-67
2021/06/27 02:19:40;;;;;;;1.92;0.30;;;;;;;;;;5073695;28;20053;-67
2021/06/27 02:22:07;;;;;;;0.85;0.30;;;;;;;;;;5089820;28;20112;-67
2021/06/27 02:24:34;;;;;;;1.60;0.25;;;;;;;;;;5088701;28;20029;-67
2021/06/27 02:27:01;;;;;;;1.02;0.20;;;;;;;;;;5092126;28;20041;-68
2021/06/27 02:29:29;;;;;;;1.70;0.20;;;;;;;;;;5092364;28;20054;-67
2021/06/27 02:31:59;;;;;;;1.10;0.63;;;;;;;;;;5088688;28;20032;-67
2021/06/27 02:34:26;;;;;;;1.08;0.20;;;;;;;;;;5069654;28;20037;-67
2021/06/27 02:36:53;;;;;;;1.05;0.50;;;;;;;;;;5089323;28;20074;-68
2021/06/27 02:39:20;;;;;;;1.80;0.30;;;;;;;;;;5090671;28;20056;-67
2021/06/27 02:41:48;;;;;;;0.68;0.20;;;;;;;;;;5092942;28;20028;-67
2021/06/27 02:44:15;;;;;;;2.92;0.20;;;;;;;;;;5090304;28;20033;-68
2021/06/27 02:46:42;;;;;;;4.57;3.60;;;;;;;;;;5078298;28;20037;-67
2021/06/27 02:49:09;;;;;;;1.92;1.00;;;;;;;;;;5075260;28;20044;-67
2021/06/27 02:51:36;;;;;;;2.72;0.40;;;;;;;;;;5095028;28;20044;-67
2021/06/27 02:54:04;;;;;;;0.60;0.20;;;;;;;;;;5093874;28;20033;-68
2021/06/27 02:56:31;;;;;;;1.45;0.30;;;;;;;;;;5092258;28;20024;-67
2021/06/27 02:58:58;;;;;;;0.40;0.20;;;;;;;;;;5091927;28;20088;-67
2021/06/27 03:01:25;;;;;;;1.92;0.73;;;;;;;;;;5080664;28;20016;-67
2021/06/27 03:03:52;;;;;;;1.58;0.40;;;;;;;;;;5097080;28;20036;-68
2021/06/27 03:06:20;;;;;;;1.02;0.30;;;;;;;;;;5099226;28;20029;-68
2021/06/27 03:08:47;;;;;;;1.05;0.30;;;;;;;;;;5096627;28;20029;-68
2021/06/27 03:11:14;;;;;;;2.03;0.30;;;;;;;;;;5080575;28;20035;-66
2021/06/27 03:13:42;;;;;;;1.20;0.30;;;;;;;;;;5094492;28;20029;-67
2021/06/27 03:16:10;;;;;;;0.63;0.30;;;;;;;;;;5072794;28;20033;-68
2021/06/27 03:18:38;;;;;;;0.60;0.30;;;;;;;;;;5077573;28;20060;-67
2021/06/27 03:21:05;;;;;;;3.05;0.50;;;;;;;;;;5077007;28;20047;-67
2021/06/27 03:23:32;;;;;;;0.57;0.20;;;;;;;;;;5097146;28;20097;-69
2021/06/27 03:25:59;;;;;;;0.63;0.28;;;;;;;;;;5091589;28;20032;-67
2021/06/27 03:28:32;;;;;;;0.77;0.50;;;;;;;;;;5096121;28;20354;-69
2021/06/27 03:30:59;;;;;;;1.08;0.40;;;;;;;;;;5078896;28;20060;-67
2021/06/27 03:33:26;;;;;;;0.82;0.30;;;;;;;;;;5090963;28;20114;-69
2021/06/27 03:35:54;;;;;;;2.50;0.50;;;;;;;;;;5090238;28;20032;-68
2021/06/27 03:38:37;;;;;;;1.67;0.30;;;;;;;;;;5086388;28;20032;-67
2021/06/27 03:41:04;;;;;;;0.60;0.50;;;;;;;;;;5077455;28;20049;-67
2021/06/27 03:43:35;;;;;;;2.05;0.38;;;;;;;;;;5096033;28;20044;-67
2021/06/27 03:46:02;;;;;;;0.65;0.30;;;;;;;;;;5093424;28;20072;-67
2021/06/27 03:48:29;;;;;;;1.90;0.30;;;;;;;;;;5091185;28;20215;-67
2021/06/27 03:50:56;;;;;;;0.82;0.30;;;;;;;;;;5072327;28;20025;-67
2021/06/27 03:53:23;;;;;;;0.50;0.22;;;;;;;;;;5076805;28;20052;-67
2021/06/27 03:55:56;;;;;;;0.98;0.20;;;;;;;;;;5074739;28;20047;-67
2021/06/27 03:58:24;;;;;;;0.73;0.30;;;;;;;;;;5076594;28;20029;-67
2021/06/27 04:00:51;;;;;;;1.75;0.50;;;;;;;;;;5066235;28;20041;-68
2021/06/27 04:03:19;;;;;;;0.50;0.30;;;;;;;;;;5045170;28;20045;-67
2021/06/27 04:05:46;;;;;;;1.63;0.45;;;;;;;;;;5068405;28;20047;-68
2021/06/27 04:08:13;;;;;;;1.42;0.40;;;;;;;;;;5068260;28;20040;-68
2021/06/27 04:10:40;;;;;;;1.45;0.50;;;;;;;;;;5065168;28;20045;-68
2021/06/27 04:13:07;;;;;;;1.27;0.50;;;;;;;;;;5064489;28;20036;-68
2021/06/27 04:15:34;;;;;;;1.15;0.52;;;;;;;;;;5060852;28;20021;-68
2021/06/27 04:18:01;;;;;;;1.98;0.45;;;;;;;;;;5060737;28;20045;-68
2021/06/27 04:20:28;;;;;;;1.83;0.45;;;;;;;;;;5057458;28;20585;-66
2021/06/27 04:22:55;;;;;;;1.38;0.30;;;;;;;;;;5062664;28;20039;-67
2021/06/27 04:25:23;;;;;;;3.85;0.30;;;;;;;;;;5073065;28;20029;-67
2021/06/27 04:27:50;;;;;;;1.35;0.40;;;;;;;;;;5061442;28;20056;-67
2021/06/27 04:30:17;;;;;;;0.93;0.30;;;;;;;;;;5057624;28;20077;-67
2021/06/27 04:32:44;;;;;;;0.98;0.38;;;;;;;;;;5064557;28;20037;-67
2021/06/27 04:35:13;;;;;;;1.77;0.30;;;;;;;;;;5053664;28;20036;-68
2021/06/27 04:37:40;;;;;;;0.63;0.22;;;;;;;;;;5051927;28;20044;-68
2021/06/27 04:40:07;;;;;;;3.08;0.52;;;;;;;;;;5050400;28;20037;-69
2021/06/27 04:42:35;;;;;;;1.00;0.35;;;;;;;;;;5053162;28;20410;-69
2021/06/27 04:45:02;;;;;;;1.20;0.30;;;;;;;;;;5052114;28;20052;-69
2021/06/27 04:47:29;;;;;;;0.73;0.40;;;;;;;;;;5050929;28;20514;-69
2021/06/27 04:49:56;;;;;;;1.90;0.52;;;;;;;;;;5073253;28;20040;-68
2021/06/27 04:52:23;;;;;;;1.40;0.40;;;;;;;;;;5071273;28;20044;-69
2021/06/27 04:54:50;;;;;;;2.38;0.85;;;;;;;;;;5081667;28;20442;-68
2021/06/27 04:57:17;;;;;;;0.95;0.40;;;;;;;;;;5063459;28;20037;-68
2021/06/27 04:59:45;;;;;;;0.95;0.60;;;;;;;;;;5090177;28;20041;-68
2021/06/27 05:02:12;;;;;;;0.80;0.30;;;;;;;;;;5067645;28;20036;-69
2021/06/27 05:04:39;;;;;;;2.25;0.30;;;;;;;;;;5077544;28;20066;-69
2021/06/27 05:07:06;;;;;;;1.90;0.32;;;;;;;;;;5094522;28;20071;-68
2021/06/27 05:09:33;;;;;;;0.65;0.28;;;;;;;;;;5094113;28;20060;-68
2021/06/27 05:12:00;;;;;;;1.30;0.50;;;;;;;;;;5092170;28;20056;-68
2021/06/27 05:14:27;;;;;;;1.60;0.60;;;;;;;;;;5090140;28;20036;-68
2021/06/27 05:16:54;;;;;;;1.60;0.80;;;;;;;;;;5080892;28;20047;-68
2021/06/27 05:19:21;;;;;;;1.35;0.55;;;;;;;;;;5096215;28;20690;-68
2021/06/27 05:21:49;;;;;;;0.52;0.20;;;;;;;;;;5090050;28;20017;-68
2021/06/27 05:24:16;;;;;;;2.05;0.40;;;;;;;;;;5083613;28;20029;-69
2021/06/27 05:26:43;;;;;;;3.80;0.52;;;;;;;;;;5071056;28;20085;-68
2021/06/27 05:29:10;;;;;;;1.38;0.60;;;;;;;;;;5068553;28;20670;-69
2021/06/27 05:31:37;;;;;;;1.70;0.50;;;;;;;;;;5071344;28;20029;-68
2021/06/27 05:34:04;;;;;;;2.55;0.47;;;;;;;;;;5068119;28;20468;-68
2021/06/27 05:36:38;;;;;;;2.33;0.68;;;;;;;;;;5062968;28;20037;-67
2021/06/27 05:39:08;;;;;;;2.35;0.50;;;;;;;;;;5072053;28;20052;-68
2021/06/27 05:41:36;;;;;;;1.40;0.65;;;;;;;;;;5071608;28;20108;-67
2021/06/27 05:44:04;;;;;;;0.95;0.35;;;;;;;;;;5067585;28;20033;-68
2021/06/27 05:46:31;;;;;;;1.73;0.80;;;;;;;;;;5073821;28;20033;-68
2021/06/27 05:48:58;;;;;;;1.80;0.60;;;;;;;;;;5070004;28;20127;-67
2021/06/27 05:51:25;;;;;;;1.88;0.55;;;;;;;;;;5076559;28;20047;-68
2021/06/27 05:53:53;;;;;;;1.77;0.50;;;;;;;;;;5052846;28;20036;-68
2021/06/27 05:56:20;;;;;;;1.65;0.40;;;;;;;;;;5080911;28;20047;-68
2021/06/27 05:58:48;;;;;;;1.92;0.60;;;;;;;;;;5073950;28;20036;-68
2021/06/27 06:01:17;;;;;;;1.60;0.57;;;;;;;;;;5069012;28;20069;-68
2021/06/27 06:03:44;;;;;;;1.15;0.40;;;;;;;;;;5076702;28;20134;-68
2021/06/27 06:06:12;;;;;;;0.93;0.40;;;;;;;;;;5069147;28;20036;-68
2021/06/27 06:08:43;;;;;;;2.78;0.55;;;;;;;;;;5067149;28;20039;-68
2021/06/27 06:11:10;;;;;;;4.65;1.10;;;;;;;;;;5095691;28;20024;-67
2021/06/27 06:13:38;;;;;;;2.33;1.10;;;;;;;;;;5092695;28;20029;-67
2021/06/27 06:16:06;;;;;;;3.17;0.80;;;;;;;;;;5093316;28;20025;-67
2021/06/27 06:18:33;;;;;;;2.50;0.90;;;;;;;;;;5093782;28;20041;-67
2021/06/27 06:21:01;;;;;;;1.60;0.93;;;;;;;;;;5090046;28;20038;-68
2021/06/27 06:23:28;;;;;;;1.98;1.05;;;;;;;;;;5090019;28;20101;-67
2021/06/27 06:25:55;;;;;;;3.30;0.98;;;;;;;;;;5093431;28;20042;-67
2021/06/27 06:28:22;;;;;;;2.40;0.60;;;;;;;;;;5100571;28;20017;-67
2021/06/27 06:30:49;;;;;;;1.75;0.80;;;;;;;;;;5098287;28;20085;-67
2021/06/27 06:33:17;;;;;;;1.00;0.50;;;;;;;;;;5098801;28;20025;-67
2021/06/27 06:35:45;;;;;;;3.67;1.75;;;;;;;;;;5098073;28;20067;-67
2021/06/27 06:38:12;;;;;;;3.67;1.08;;;;;;;;;;5098630;28;20035;-67
2021/06/27 06:40:40;;;;;;;2.47;1.05;;;;;;;;;;5096094;28;20036;-67
2021/06/27 06:43:07;;;;;;;3.83;0.80;;;;;;;;;;5098268;28;20032;-67
2021/06/27 06:45:35;;;;;;;2.72;0.70;;;;;;;;;;5093537;28;20037;-67
2021/06/27 06:48:03;;;;;;;1.05;0.40;;;;;;;;;;5103296;28;20051;-67
2021/06/27 06:50:30;;;;;;;3.13;0.50;;;;;;;;;;5099690;28;20033;-67
2021/06/27 06:52:57;;;;;;;1.95;0.60;;;;;;;;;;5098641;28;20047;-67
2021/06/27 06:55:26;;;;;;;2.58;1.00;;;;;;;;;;5098107;28;20017;-67
2021/06/27 06:57:54;;;;;;;4.03;1.00;;;;;;;;;;5097288;28;20119;-67
2021/06/27 07:00:21;;;;;;;2.10;0.73;;;;;;;;;;5096166;28;20040;-70
2021/06/27 07:02:49;;;;;;;1.73;1.15;;;;;;;;;;5096350;28;20044;-68
2021/06/27 07:05:16;;;;;;;2.85;0.52;;;;;;;;;;5096351;28;20029;-68
2021/06/27 07:07:45;;;;;;;3.47;1.33;;;;;;;;;;5096598;28;20035;-68
2021/06/27 07:10:13;;;;;;;1.30;0.50;;;;;;;;;;5097640;28;20032;-67
2021/06/27 07:12:41;;;;;;;2.88;0.80;;;;;;;;;;5098721;28;20016;-67
2021/06/27 07:15:08;;;;;;;1.75;0.32;;;;;;;;;;5099677;28;20024;-68
2021/06/27 07:17:35;;;;;;;1.77;0.70;;;;;;;;;;5080316;28;20063;-67
2021/06/27 07:20:02;;;;;;;2.05;0.57;;;;;;;;;;5096974;28;20039;-67
2021/06/27 07:22:29;;;;;;;2.00;0.50;;;;;;;;;;5098543;28;20020;-68
2021/06/27 07:24:57;;;;;;;1.23;0.40;;;;;;;;;;5097498;28;20025;-68
2021/06/27 07:27:24;;;;;;;4.55;1.10;;;;;;;;;;5098447;28;20110;-68
2021/06/27 07:29:51;;;;;;;1.23;0.60;;;;;;;;;;5094038;28;20028;-68
2021/06/27 07:32:18;;;;;;;2.03;1.08;;;;;;;;;;5096709;28;20037;-68
2021/06/27 07:34:45;;;;;;;3.13;1.20;;;;;;;;;;5096655;28;20033;-68
2021/06/27 07:37:12;;;;;;;2.00;1.17;;;;;;;;;;5098418;28;20031;-68
2021/06/27 07:39:39;;;;;;;2.80;1.63;;;;;;;;;;5078084;28;20922;-68
2021/06/27 07:42:07;;;;;;;1.88;1.45;;;;;;;;;;5096788;28;20050;-68
2021/06/27 07:44:34;;;;;;;6.07;2.40;;;;;;;;;;5094123;28;20036;-68
2021/06/27 07:47:01;;;;;;;4.65;2.85;;;;;;;;;;5094319;28;20029;-67
2021/06/27 07:49:28;;;;;;;10.60;6.43;;;;;;;;;;5093037;28;20233;-69
2021/06/27 07:51:56;;;;;;;6.28;3.38;;;;;;;;;;5078449;28;20031;-68
2021/06/27 07:54:23;;;;;;;11.85;5.05;;;;;;;;;;5095007;28;20025;-69
2021/06/27 07:56:50;;;;;;;10.27;6.20;;;;;;;;;;5096144;28;20025;-68
2021/06/27 07:59:17;;;;;;;11.43;5.63;;;;;;;;;;5095993;28;20029;-68
2021/06/27 08:01:44;;;;;;;9.38;5.38;;;;;;;;;;5079796;28;20025;-69
2021/06/27 08:04:11;;;;;;;12.35;6.25;;;;;;;;;;5093099;28;20037;-68
2021/06/27 08:06:38;;;;;;;12.43;6.32;;;;;;;;;;5097617;28;20036;-68
2021/06/27 08:09:06;;;;;;;8.95;5.80;;;;;;;;;;5095884;28;20028;-69
2021/06/27 08:11:33;;;;;;;12.25;5.43;;;;;;;;;;5098198;28;20037;-70
2021/06/27 08:14:00;;;;;;;8.63;4.60;;;;;;;;;;5096359;28;20029;-68
2021/06/27 08:16:27;;;;;;;7.18;3.50;;;;;;;;;;5077030;28;20192;-68
2021/06/27 08:18:54;;;;;;;8.38;3.60;;;;;;;;;;5091405;28;20056;-68
2021/06/27 08:21:22;;;;;;;8.80;3.58;;;;;;;;;;5088117;28;20032;-68
2021/06/27 08:23:49;;;;;;;5.75;3.20;;;;;;;;;;5084132;28;20045;-68
2021/06/27 08:26:17;;;;;;;14.48;9.05;;;;;;;;;;5080707;28;20052;-68
2021/06/27 08:28:44;;;;;;;11.70;6.38;;;;;;;;;;5082609;28;20036;-68
2021/06/27 08:31:11;;;;;;;13.25;7.57;;;;;;;;;;5084099;28;20111;-68
2021/06/27 08:33:38;;;;;;;9.35;6.13;;;;;;;;;;5086831;28;20031;-68
2021/06/27 08:36:05;;;;;;;8.00;4.32;;;;;;;;;;5080840;28;20024;-68
2021/06/27 08:38:32;;;;;;;6.38;4.15;;;;;;;;;;5079156;28;20063;-67
2021/06/27 08:41:01;;;;;;;7.40;4.38;;;;;;;;;;5092020;28;20090;-68
2021/06/27 08:43:32;;;;;;;8.13;3.97;;;;;;;;;;5095324;28;20023;-67
2021/06/27 08:46:05;;;;;;;9.63;5.95;;;;;;;;;;5078594;28;20021;-68
2021/06/27 08:48:35;;;;;;;10.57;5.22;;;;;;;;;;5097401;28;20037;-67
2021/06/27 08:51:02;;;;;;;10.02;5.60;;;;;;;;;;5096813;28;20020;-68
2021/06/27 08:53:30;;;;;;;8.32;5.25;;;;;;;;;;5079532;28;20021;-68
2021/06/27 08:56:07;;;;;;;12.13;5.07;;;;;;;;;;5094083;28;20051;-68
2021/06/27 08:58:34;;;;;;;5.90;3.22;;;;;;;;;;5087735;28;20028;-68
2021/06/27 09:01:03;;;;;;;6.25;3.97;;;;;;;;;;5076946;28;20027;-68
2021/06/27 09:03:30;;;;;;;6.10;3.67;;;;;;;;;;5095511;28;20032;-68
2021/06/27 09:05:58;;;;;;;8.60;4.43;;;;;;;;;;5094086;28;20024;-69
2021/06/27 09:08:25;;;;;;;7.53;5.00;;;;;;;;;;5075155;28;20059;-68
2021/06/27 09:10:54;;;;;;;12.52;7.20;;;;;;;;;;5087778;28;20037;-69
2021/06/27 09:13:37;;;;;;;14.52;8.52;;;;;;;;;;5087188;28;20077;-69
2021/06/27 09:16:17;;;;;;;11.88;7.45;;;;;;;;;;5071503;28;20013;-68
2021/06/27 09:18:44;;;;;;;11.40;7.57;;;;;;;;;;5084763;28;20123;-69
2021/06/27 09:21:11;;;;;;;14.57;6.43;;;;;;;;;;5086394;28;20079;-69
2021/06/27 09:23:38;;;;;;;8.48;6.05;;;;;;;;;;5086299;28;20036;-69
2021/06/27 09:26:06;;;;;;;10.35;5.00;;;;;;;;;;5090538;28;20044;-69
2021/06/27 09:28:43;;;;;;;9.95;5.07;;;;;;;;;;5098245;28;20043;-69
2021/06/27 09:31:11;;;;;;;9.73;4.88;;;;;;;;;;5079498;28;20045;-69
2021/06/27 09:33:38;;;;;;;11.77;5.28;;;;;;;;;;5096037;28;20044;-69
2021/06/27 09:36:07;;;;;;;9.32;5.40;;;;;;;;;;5097831;28;20170;-69
2021/06/27 09:38:35;;;;;;;9.43;5.85;;;;;;;;;;5074178;28;20040;-69
2021/06/27 09:41:05;;;;;;;18.25;9.52;;;;;;;;;;5078108;28;20028;-69
2021/06/27 09:43:34;;;;;;;13.70;8.60;;;;;;;;;;5084717;28;20028;-69
2021/06/27 09:46:15;;;;;;;13.32;8.85;;;;;;;;;;5086714;28;20086;-69
2021/06/27 09:48:58;;;;;;;16.10;7.38;;;;;;;;;;5074781;28;20068;-69
2021/06/27 09:51:27;;;;;;;13.18;8.45;;;;;;;;;;5067830;28;20028;-69
2021/06/27 09:53:54;;;;;;;19.02;8.80;;;;;;;;;;5078793;28;20356;-69
2021/06/27 09:56:24;;;;;;;15.43;10.05;;;;;;;;;;5084957;28;20153;-67
2021/06/27 09:59:05;;;;;;;14.93;10.27;;;;;;;;;;5086296;28;20036;-67
2021/06/27 10:01:33;;;;;;;15.88;11.25;;;;;;;;;;5077900;28;20032;-68
2021/06/27 10:04:01;;;;;;;17.35;11.77;;;;;;;;;;5080558;28;20029;-68
2021/06/27 10:06:28;;;;;;;21.65;12.38;;;;;;;;;;5081777;28;20036;-68
2021/06/27 10:08:56;;;;;;;18.08;11.10;;;;;;;;;;5082707;28;20572;-69
2021/06/27 10:11:24;;;;;;;14.88;11.05;;;;;;;;;;5077096;28;20049;-68
2021/06/27 10:13:55;;;;;;;18.95;11.70;;;;;;;;;;5077302;28;20032;-68
2021/06/27 10:16:25;;;;;;;22.65;12.57;;;;;;;;;;5076404;28;20397;-69
2021/06/27 10:18:53;;;;;;;21.75;12.60;;;;;;;;;;5074890;28;20095;-69
2021/06/27 10:21:20;;;;;;;17.30;12.27;;;;;;;;;;5086123;28;20032;-68
2021/06/27 10:23:48;;;;;;;18.20;11.85;;;;;;;;;;5079100;28;20491;-69
2021/06/27 10:26:17;;;;;;;19.10;12.15;;;;;;;;;;5087745;28;20096;-69
2021/06/27 10:28:44;;;;;;;17.17;11.75;;;;;;;;;;5069267;28;20055;-69
2021/06/27 10:31:14;;;;;;;14.50;9.20;;;;;;;;;;5085265;28;20044;-68
2021/06/27 10:33:42;;;;;;;14.23;9.05;;;;;;;;;;5093925;28;20148;-69
2021/06/27 10:36:14;;;;;;;13.73;9.15;;;;;;;;;;5092866;28;20032;-68
2021/06/27 10:38:42;;;;;;;13.95;9.15;;;;;;;;;;5096552;28;20135;-69
2021/06/27 10:41:09;;;;;;;18.88;8.85;;;;;;;;;;5081670;28;20036;-68
2021/06/27 10:43:54;;;;;;;16.08;8.73;;;;;;;;;;5106861;28;20029;-68
2021/06/27 10:46:41;;;;;;;10.30;6.32;;;;;;;;;;5102213;28;20024;-68
2021/06/27 10:49:29;;;;;;;16.52;8.10;;;;;;;;;;5103195;28;20036;-68
2021/06/27 10:51:59;;;;;;;14.82;9.18;;;;;;;;;;5099507;28;20036;-68
2021/06/27 10:54:27;;;;;;;12.70;8.32;;;;;;;;;;5098279;28;20033;-69
2021/06/27 10:57:30;;;;;;;11.90;8.68;;;;;;;;;;5094662;28;20094;-68
2021/06/27 10:59:57;;;;;;;13.15;8.35;;;;;;;;;;5063128;28;20096;-67
2021/06/27 11:02:27;;;;;;;16.70;8.23;;;;;;;;;;5082578;28;20039;-68
2021/06/27 11:04:56;;;;;;;10.35;5.95;;;;;;;;;;5087446;28;20059;-69
2021/06/27 11:07:38;;;;;;;9.02;4.80;;;;;;;;;;5088522;28;20047;-68
2021/06/27 11:10:20;;;;;;;9.05;5.07;;;;;;;;;;5101038;28;20039;-68
2021/06/27 11:13:11;;;;;;;8.98;5.22;;;;;;;;;;5079663;28;20044;-69
2021/06/27 11:15:39;;;;;;;5.78;3.60;;;;;;;;;;5067500;28;20048;-69
2021/06/27 11:18:10;;;;;;;4.72;3.10;;;;;;;;;;5078605;28;20036;-69
2021/06/27 11:20:46;;;;;;;4.57;2.97;;;;;;;;;;5078026;28;20115;-69
2021/06/27 11:23:14;;;;;;;5.90;3.00;;;;;;;;;;5074677;28;20036;-70
2021/06/27 11:25:46;;;;;;;6.78;2.78;;;;;;;;;;5090959;28;20024;-69
2021/06/27 11:28:19;;;;;;;3.95;2.40;;;;;;;;;;5088437;28;20441;-69
2021/06/27 11:30:47;;;;;;;14.57;7.57;;;;;;;;;;5083035;28;20036;-68
2021/06/27 11:33:17;;;;;;;5.68;2.75;;;;;;;;;;5082037;28;20107;-70
2021/06/27 11:35:46;;;;;;;5.60;2.40;;;;;;;;;;5100481;28;20031;-68
2021/06/27 11:38:31;;;;;;;3.35;1.90;;;;;;;;;;5086394;28;20038;-68
2021/06/27 11:40:58;;;;;;;3.25;1.67;;;;;;;;;;5074285;28;20106;-68
2021/06/27 11:43:44;;;;;;;2.72;1.50;;;;;;;;;;5082106;28;20568;-68
2021/06/27 11:46:30;;;;;;;2.53;1.10;;;;;;;;;;5088056;28;20044;-68
2021/06/27 11:49:02;;;;;;;2.50;1.35;;;;;;;;;;5083189;28;20067;-68
2021/06/27 11:51:35;;;;;;;3.00;1.20;;;;;;;;;;5080137;28;20024;-67
2021/06/27 11:54:06;;;;;;;2.97;1.10;;;;;;;;;;5079286;28;20024;-68
2021/06/27 11:56:51;;;;;;;1.65;0.98;;;;;;;;;;5085132;28;20028;-68
2021/06/27 11:59:20;;;;;;;2.22;1.10;;;;;;;;;;5076961;28;20044;-68
2021/06/27 12:02:05;;;;;;;2.15;0.90;;;;;;;;;;5086111;28;20032;-68
2021/06/27 12:04:40;;;;;;;1.85;0.90;;;;;;;;;;5079753;28;20099;-69
2021/06/27 12:07:25;;;;;;;2.25;1.00;;;;;;;;;;5074131;28;20526;-68
2021/06/27 12:09:53;;;;;;;2.58;1.15;;;;;;;;;;5078628;28;20043;-69
2021/06/27 12:12:40;;;;;;;1.48;1.02;;;;;;;;;;5084558;28;20047;-69
2021/06/27 12:15:25;;;;;;;2.90;1.05;;;;;;;;;;5063212;28;20033;-68
2021/06/27 12:17:56;;;;;;;1.65;1.00;;;;;;;;;;5056873;28;20079;-68
2021/06/27 12:20:23;;;;;;;2.25;0.88;;;;;;;;;;5072434;28;20495;-68
2021/06/27 12:23:10;;;;;;;1.13;0.63;;;;;;;;;;5078275;28;20531;-68
2021/06/27 12:25:49;;;;;;;2.17;0.98;;;;;;;;;;5086991;28;20044;-67
2021/06/27 12:28:17;;;;;;;2.13;0.90;;;;;;;;;;5087340;28;20032;-67
2021/06/27 12:30:46;;;;;;;1.13;0.70;;;;;;;;;;5075229;28;20101;-67
2021/06/27 12:33:15;;;;;;;2.05;0.70;;;;;;;;;;5082269;28;20035;-69
2021/06/27 12:35:43;;;;;;;0.95;0.75;;;;;;;;;;5065719;28;20036;-68
2021/06/27 12:38:10;;;;;;;1.95;0.45;;;;;;;;;;5070472;28;20048;-68
2021/06/27 12:40:42;;;;;;;1.02;0.50;;;;;;;;;;5076014;28;20108;-69
2021/06/27 12:43:22;;;;;;;2.65;0.50;;;;;;;;;;5082089;28;20365;-69
2021/06/27 12:46:08;;;;;;;1.20;0.60;;;;;;;;;;5085010;28;20474;-68
2021/06/27 12:48:35;;;;;;;2.60;0.40;;;;;;;;;;5059814;28;20056;-69
2021/06/27 12:51:02;;;;;;;1.67;0.50;;;;;;;;;;5081791;28;20089;-69
2021/06/27 12:53:30;;;;;;;2.28;0.43;;;;;;;;;;5086842;28;20039;-69
2021/06/27 12:56:08;;;;;;;1.58;0.30;;;;;;;;;;5078357;28;20047;-69
2021/06/27 12:58:54;;;;;;;0.70;0.38;;;;;;;;;;5069430;28;20048;-69
2021/06/27 13:01:22;;;;;;;1.67;0.65;;;;;;;;;;5086925;28;20146;-68
2021/06/27 13:03:58;;;;;;;2.08;0.70;;;;;;;;;;5081213;28;20072;-69
2021/06/27 13:06:26;;;;;;;1.35;0.20;;;;;;;;;;5076296;28;20040;-68
2021/06/27 13:09:11;;;;;;;2.13;0.60;;;;;;;;;;5082410;28;20495;-68
2021/06/27 13:11:58;;;;;;;3.33;0.60;;;;;;;;;;5095972;28;20025;-68
2021/06/27 13:14:26;;;;;;;1.50;0.20;;;;;;;;;;5067408;28;20082;-68
2021/06/27 13:17:03;;;;;;;3.70;0.32;;;;;;;;;;5069879;28;20557;-69
2021/06/27 13:19:30;;;;;;;1.58;0.50;;;;;;;;;;5087517;28;20040;-69
2021/06/27 13:22:11;;;;;;;2.42;0.50;;;;;;;;;;5091145;28;20493;-67
2021/06/27 13:24:57;;;;;;;3.42;0.60;;;;;;;;;;5084320;28;20094;-68
2021/06/27 13:27:25;;;;;;;1.30;0.40;;;;;;;;;;5094071;28;20037;-68
2021/06/27 13:30:09;;;;;;;4.25;0.50;;;;;;;;;;5076733;28;20033;-68
2021/06/27 13:32:37;;;;;;;3.47;0.85;;;;;;;;;;5059902;28;20071;-68
2021/06/27 13:35:05;;;;;;;6.50;0.77;;;;;;;;;;5073616;28;20046;-68
2021/06/27 13:37:51;;;;;;;2.10;0.50;;;;;;;;;;5092476;28;20028;-67
2021/06/27 13:40:18;;;;;;;2.20;0.52;;;;;;;;;;5063058;28;20112;-68
2021/06/27 13:42:45;;;;;;;3.15;0.70;;;;;;;;;;5086565;28;20028;-68
2021/06/27 13:45:13;;;;;;;1.30;0.50;;;;;;;;;;5067818;28;20036;-68
2021/06/27 13:47:40;;;;;;;1.45;0.55;;;;;;;;;;5084336;28;20056;-68
2021/06/27 13:50:07;;;;;;;2.97;0.63;;;;;;;;;;5091560;28;20114;-67
2021/06/27 13:52:34;;;;;;;2.70;0.73;;;;;;;;;;5088844;28;20157;-68
2021/06/27 13:55:01;;;;;;;2.42;0.65;;;;;;;;;;5090561;28;20040;-68
2021/06/27 13:57:29;;;;;;;2.55;0.63;;;;;;;;;;5081842;28;20089;-68
2021/06/27 13:59:56;;;;;;;2.15;0.50;;;;;;;;;;5080600;28;20092;-68
2021/06/27 14:02:23;;;;;;;1.00;0.55;;;;;;;;;;5088137;28;20028;-68
2021/06/27 14:04:50;;;;;;;1.20;0.63;;;;;;;;;;5091544;28;20039;-69
2021/06/27 14:07:17;;;;;;;1.10;0.70;;;;;;;;;;5072081;28;20038;-68
2021/06/27 14:09:44;;;;;;;1.75;1.00;;;;;;;;;;5086630;28;20029;-68
2021/06/27 14:12:11;;;;;;;1.45;0.50;;;;;;;;;;5075668;28;20067;-68
2021/06/27 14:14:38;;;;;;;1.98;0.98;;;;;;;;;;5068634;28;20642;-68
2021/06/27 14:17:06;;;;;;;2.20;0.55;;;;;;;;;;5091308;28;20036;-68
2021/06/27 14:19:33;;;;;;;3.40;1.00;;;;;;;;;;5065926;28;20074;-68
2021/06/27 14:22:00;;;;;;;2.80;0.70;;;;;;;;;;5064621;28;20063;-68
2021/06/27 14:24:28;;;;;;;2.78;1.10;;;;;;;;;;5081098;28;20449;-68
2021/06/27 14:26:58;;;;;;;3.33;0.90;;;;;;;;;;5095969;28;20097;-68
2021/06/27 14:29:26;;;;;;;3.40;0.98;;;;;;;;;;5080972;28;20473;-68
2021/06/27 14:31:53;;;;;;;4.63;1.30;;;;;;;;;;5087347;28;20500;-68
2021/06/27 14:34:20;;;;;;;2.17;0.98;;;;;;;;;;5095143;28;20036;-68
2021/06/27 14:36:48;;;;;;;2.67;1.08;;;;;;;;;;5088113;28;20119;-68
2021/06/27 14:39:15;;;;;;;2.38;0.70;;;;;;;;;;5090554;28;20111;-68
2021/06/27 14:41:42;;;;;;;1.60;0.70;;;;;;;;;;5095390;28;20032;-68
2021/06/27 14:44:10;;;;;;;2.20;0.65;;;;;;;;;;5085426;28;20054;-69
2021/06/27 14:46:37;;;;;;;4.15;0.80;;;;;;;;;;5079066;28;20107;-68
2021/06/27 14:49:04;;;;;;;3.45;1.08;;;;;;;;;;5089593;28;20501;-68
2021/06/27 14:51:31;;;;;;;2.10;0.40;;;;;;;;;;5086538;28;20053;-68
2021/06/27 14:53:59;;;;;;;1.67;0.57;;;;;;;;;;5075742;28;20046;-68